To NAV CANADA Home Page Login to a new session Search on AWWS site Feedback and Comments Disclaimer Vers la page française équivalente Tips FAQ What's new on the site To the Forecasts and Observations / NOTAM section To "File a Flight Plan" website Publications and other links Update of the User's profile FIC Telephone Numbers My Weather Data Folder Route Weather Data Regional Weather Data Local Weather Data To the Forecasts and Observations / NOTAM section
Request Generated 04/20/2014 at 18:33:21 UTC . Weather information available at that time is displayed.

METAR/TAF

HAY RIVER/MERLYN CARTER AIRPORT/NT    

METAR CYHY 201800Z 31006KT 15SM FEW030 FEW230 03/M03 A2993 RMK SC1CI0 SLP146=
METAR CYHY 201700Z 28004KT 15SM FEW015 FEW030 FEW230 01/M03 A2992 RMK CU1SC1CI0 SLP143=
METAR CYHY 201600Z 29003KT 15SM FEW040 FEW230 M00/M04 A2991 RMK SC1CI0 SLP139=

TAF CYHY 201738Z 2018/2106 VRB03KT P6SM FEW030
RMK NXT FCST BY 210000Z=
Your time UTC time
Weather data provided by Environment Canada and NAV CANADA